createdAt,value
2023-05-10T00:01:08.621Z,2.28
2023-05-10T00:04:11.542Z,2.10
2023-05-10T00:07:14.080Z,2.57
2023-05-10T00:10:17.104Z,2.37
2023-05-10T00:13:19.878Z,2.42
2023-05-10T00:16:22.857Z,2.37
2023-05-10T00:19:25.491Z,1.83
2023-05-10T00:22:28.198Z,2.00
2023-05-10T00:25:31.569Z,2.00
2023-05-10T00:28:34.355Z,2.05
2023-05-10T00:31:37.026Z,2.10
2023-05-10T00:34:39.861Z,2.12
2023-05-10T00:37:42.580Z,2.20
2023-05-10T00:40:45.443Z,1.70
2023-05-10T00:43:49.363Z,2.37
2023-05-10T00:46:52.186Z,1.60
2023-05-10T00:53:00.770Z,2.03
2023-05-10T00:56:04.317Z,2.07
2023-05-10T00:59:07.218Z,1.60
2023-05-10T01:02:10.753Z,2.62
2023-05-10T01:05:15.200Z,2.42
2023-05-10T01:08:18.328Z,2.13
2023-05-10T01:11:20.868Z,2.27
2023-05-10T01:14:24.172Z,2.10
2023-05-10T01:17:26.869Z,2.33
2023-05-10T01:20:37.578Z,2.10
2023-05-10T01:24:14.148Z,2.37
2023-05-10T01:27:29.315Z,2.50
2023-05-10T01:31:03.890Z,1.20
2023-05-10T01:34:21.192Z,2.75
2023-05-10T01:37:32.037Z,1.60
2023-05-10T01:40:43.411Z,2.97
2023-05-10T01:44:00.349Z,2.60
2023-05-10T01:47:11.308Z,2.28
2023-05-10T01:50:21.096Z,2.87
2023-05-10T01:53:24.939Z,2.67
2023-05-10T01:56:29.407Z,3.10
2023-05-10T01:59:41.915Z,2.40
2023-05-10T02:02:48.864Z,2.28
2023-05-10T02:05:53.382Z,3.20
2023-05-10T02:08:58.381Z,2.42
2023-05-10T02:12:04.374Z,2.73
2023-05-10T02:15:09.051Z,1.40
2023-05-10T02:18:13.528Z,3.03
2023-05-10T02:21:16.605Z,3.08
2023-05-10T02:24:19.952Z,3.17
2023-05-10T02:27:23.186Z,3.13
2023-05-10T02:30:26.150Z,3.20
2023-05-10T02:33:29.989Z,3.60
2023-05-10T02:36:33.304Z,3.05
2023-05-10T02:39:36.091Z,3.80
2023-05-10T02:42:43.231Z,3.47
2023-05-10T02:45:48.333Z,3.60
2023-05-10T02:48:51.220Z,3.37
2023-05-10T02:51:57.879Z,3.35
2023-05-10T02:55:03.265Z,3.10
2023-05-10T02:58:05.982Z,3.57
2023-05-10T03:01:09.044Z,3.67
2023-05-10T03:04:11.819Z,4.05
2023-05-10T03:07:14.756Z,3.10
2023-05-10T03:10:18.726Z,3.20
2023-05-10T03:13:46.147Z,4.20
2023-05-10T03:16:56.256Z,3.37
2023-05-10T03:20:04.873Z,3.17
2023-05-10T03:23:21.209Z,3.00
2023-05-10T03:26:28.516Z,2.87
2023-05-10T03:29:33.078Z,3.33
2023-05-10T03:32:35.982Z,4.30
2023-05-10T03:35:38.484Z,2.55
2023-05-10T03:38:42.134Z,3.92
2023-05-10T03:41:44.680Z,3.87
2023-05-10T03:44:47.624Z,2.50
2023-05-10T03:47:50.162Z,4.43
2023-05-10T03:50:53.127Z,4.40
2023-05-10T03:53:56.583Z,4.78
2023-05-10T03:56:59.718Z,3.60
2023-05-10T04:00:04.568Z,4.03
2023-05-10T04:03:16.971Z,3.87
2023-05-10T04:06:19.918Z,2.60
2023-05-10T04:09:23.343Z,4.22
2023-05-10T04:12:26.209Z,4.37
2023-05-10T04:15:28.851Z,3.83
2023-05-10T04:18:32.290Z,4.03
2023-05-10T04:21:34.784Z,4.35
2023-05-10T04:24:37.549Z,4.82
2023-05-10T04:27:40.082Z,3.87
2023-05-10T04:30:43.025Z,4.63
2023-05-10T04:33:45.599Z,3.93
2023-05-10T04:36:48.344Z,4.47
2023-05-10T04:39:51.811Z,4.12
2023-05-10T04:42:54.533Z,4.75
2023-05-10T04:45:59.899Z,3.97
2023-05-10T04:49:02.714Z,3.97
2023-05-10T04:52:25.154Z,4.78
2023-05-10T04:55:28.028Z,4.22
2023-05-10T04:58:31.323Z,4.03
2023-05-10T05:01:34.225Z,4.40
2023-05-10T05:04:36.768Z,3.87
2023-05-10T05:07:39.838Z,4.43
2023-05-10T05:13:47.755Z,4.57
2023-05-10T05:16:53.023Z,3.60
2023-05-10T05:19:55.882Z,3.83
2023-05-10T05:22:58.421Z,4.05
2023-05-10T05:26:01.118Z,4.15
2023-05-10T05:29:03.975Z,4.30
2023-05-10T05:32:06.833Z,3.27
2023-05-10T05:35:11.205Z,4.27
2023-05-10T05:38:14.056Z,4.12
2023-05-10T05:41:16.550Z,4.65
2023-05-10T05:44:19.406Z,2.53
2023-05-10T05:47:22.082Z,3.00
2023-05-10T05:50:24.931Z,3.07
2023-05-10T05:53:27.571Z,4.30
2023-05-10T05:56:30.339Z,3.62
2023-05-10T05:59:32.938Z,5.05
2023-05-10T06:02:35.857Z,3.80
2023-05-10T06:05:38.879Z,3.70
2023-05-10T06:08:42.265Z,3.83
2023-05-10T06:11:47.671Z,4.10
2023-05-10T06:14:52.801Z,3.78
2023-05-10T06:17:58.600Z,4.53
2023-05-10T06:21:03.931Z,3.73
2023-05-10T06:24:07.706Z,4.80
2023-05-10T06:27:10.237Z,3.97
2023-05-10T06:30:14.457Z,4.53
2023-05-10T06:33:17.108Z,4.23
2023-05-10T06:36:19.960Z,3.13
2023-05-10T06:39:22.469Z,2.95
2023-05-10T06:42:26.486Z,2.55
2023-05-10T06:45:28.966Z,3.45
2023-05-10T06:48:31.972Z,3.73
2023-05-10T06:51:34.505Z,4.47
2023-05-10T06:54:57.171Z,3.95
2023-05-10T06:57:59.647Z,4.50
2023-05-10T07:01:08.448Z,3.92
2023-05-10T07:04:11.321Z,2.87
2023-05-10T07:07:15.080Z,3.10
2023-05-10T07:10:17.613Z,4.00
2023-05-10T07:13:20.688Z,4.10
2023-05-10T07:16:23.283Z,3.80
2023-05-10T07:19:26.431Z,5.17
2023-05-10T07:22:28.885Z,3.23
2023-05-10T07:25:32.025Z,2.75
2023-05-10T07:28:34.528Z,3.40
2023-05-10T07:31:37.378Z,3.37
2023-05-10T07:34:39.859Z,3.33
2023-05-10T07:37:42.661Z,3.30
2023-05-10T07:40:45.101Z,2.83
2023-05-10T07:43:47.900Z,2.78
2023-05-10T07:46:50.705Z,3.00
2023-05-10T07:49:53.546Z,2.90
2023-05-10T07:52:56.161Z,2.80
2023-05-10T07:55:59.475Z,2.60
2023-05-10T07:59:04.759Z,3.12
2023-05-10T08:02:07.636Z,3.42
2023-05-10T08:05:10.591Z,2.50
2023-05-10T08:08:13.437Z,2.93
2023-05-10T08:11:19.762Z,2.47
2023-05-10T08:14:22.252Z,3.17
2023-05-10T08:17:24.971Z,2.30
2023-05-10T08:20:27.563Z,2.20
2023-05-10T08:23:30.260Z,2.53
2023-05-10T08:26:33.577Z,2.35
2023-05-10T08:29:48.791Z,2.62
2023-05-10T08:32:52.754Z,2.80
2023-05-10T08:35:55.521Z,2.53
2023-05-10T08:38:58.013Z,2.80
2023-05-10T08:42:03.136Z,2.92
2023-05-10T08:45:08.339Z,2.85
2023-05-10T08:48:11.833Z,3.17
2023-05-10T08:51:23.158Z,3.00
2023-05-10T08:54:26.160Z,2.47
2023-05-10T08:57:28.936Z,2.45
2023-05-10T09:00:31.821Z,2.95
2023-05-10T09:03:36.421Z,2.72
2023-05-10T09:06:39.472Z,2.37
2023-05-10T09:09:43.552Z,3.73
2023-05-10T09:12:46.543Z,2.20
2023-05-10T09:15:49.451Z,2.40
2023-05-10T09:18:52.274Z,2.50
2023-05-10T09:21:56.888Z,2.43
2023-05-10T09:25:10.584Z,2.47
2023-05-10T09:28:13.342Z,2.30
2023-05-10T09:31:16.179Z,1.92
2023-05-10T09:34:20.974Z,2.47
2023-05-10T09:37:30.733Z,2.13
2023-05-10T09:40:33.489Z,2.70
2023-05-10T09:43:39.338Z,2.42
2023-05-10T09:46:42.571Z,2.50
2023-05-10T09:49:45.578Z,2.10
2023-05-10T09:53:00.158Z,2.10
2023-05-10T09:56:03.082Z,1.80
2023-05-10T09:59:06.565Z,2.05
2023-05-10T10:02:09.387Z,1.90
2023-05-10T10:05:12.706Z,2.17
2023-05-10T10:08:16.243Z,1.70
2023-05-10T10:11:19.860Z,2.20
2023-05-10T10:14:23.856Z,2.53
2023-05-10T10:17:29.142Z,2.40
2023-05-10T10:20:31.607Z,2.90
2023-05-10T10:23:34.371Z,2.20
2023-05-10T10:26:39.309Z,2.07
2023-05-10T10:30:14.154Z,1.90
2023-05-10T10:33:35.483Z,2.90
2023-05-10T10:36:46.485Z,2.00
2023-05-10T10:39:52.119Z,1.90
2023-05-10T10:42:56.224Z,2.00
2023-05-10T10:46:14.019Z,2.08
2023-05-10T10:49:18.469Z,2.35
2023-05-10T10:52:29.100Z,2.25
2023-05-10T10:55:32.206Z,2.23
2023-05-10T10:58:35.417Z,2.40
2023-05-10T11:01:43.727Z,2.03
2023-05-10T11:04:47.768Z,1.60
2023-05-10T11:07:57.974Z,2.33
2023-05-10T11:11:00.331Z,2.00
2023-05-10T11:14:05.981Z,2.00
2023-05-10T11:17:30.246Z,1.70
2023-05-10T11:20:41.911Z,2.30
2023-05-10T11:23:44.594Z,1.90
2023-05-10T11:26:47.487Z,1.73
2023-05-10T11:29:52.825Z,1.77
2023-05-10T11:32:56.457Z,1.90
2023-05-10T11:35:58.886Z,1.40
2023-05-10T11:39:01.696Z,1.67
2023-05-10T11:42:04.523Z,1.50
2023-05-10T11:45:08.998Z,1.70
2023-05-10T11:48:11.584Z,1.60
2023-05-10T11:51:14.390Z,1.30
2023-05-10T11:54:16.851Z,1.60
2023-05-10T11:57:21.272Z,1.43
2023-05-10T12:00:23.802Z,1.27
2023-05-10T12:03:27.252Z,1.30
2023-05-10T12:06:32.830Z,1.30
2023-05-10T12:09:43.729Z,1.50
2023-05-10T12:12:50.628Z,1.40
2023-05-10T12:15:53.544Z,1.40
2023-05-10T12:19:01.121Z,1.40
2023-05-10T12:22:06.460Z,1.42
2023-05-10T12:25:11.928Z,1.12
2023-05-10T12:28:14.713Z,1.53
2023-05-10T12:31:17.665Z,1.00
2023-05-10T12:34:47.590Z,1.23
2023-05-10T12:37:50.044Z,1.30
2023-05-10T12:40:53.031Z,1.30
2023-05-10T12:43:55.498Z,1.40
2023-05-10T12:46:58.275Z,1.20
2023-05-10T12:50:02.445Z,1.40
2023-05-10T12:53:05.351Z,1.33
2023-05-10T12:56:08.125Z,1.30
2023-05-10T12:59:11.014Z,1.57
2023-05-10T13:02:14.052Z,1.40
2023-05-10T13:05:16.860Z,1.50
2023-05-10T13:08:19.360Z,1.48
2023-05-10T13:11:22.599Z,1.40
2023-05-10T13:14:25.484Z,1.40
2023-05-10T13:17:28.351Z,1.33
2023-05-10T13:20:30.780Z,1.40
2023-05-10T13:23:33.480Z,1.30
2023-05-10T13:26:37.289Z,0.80
2023-05-10T13:29:40.278Z,1.17
2023-05-10T13:32:42.772Z,1.00
2023-05-10T13:35:46.224Z,0.90
2023-05-10T13:38:48.628Z,0.80
2023-05-10T13:41:52.049Z,1.95
2023-05-10T13:44:55.852Z,1.67
2023-05-10T13:47:58.598Z,1.30
2023-05-10T13:51:01.055Z,1.02
2023-05-10T13:54:04.671Z,1.30
2023-05-10T13:57:07.658Z,1.30
2023-05-10T14:03:14.714Z,1.60
2023-05-10T14:06:17.186Z,0.90
2023-05-10T14:09:20.330Z,1.48
2023-05-10T14:12:22.757Z,1.00
2023-05-10T14:15:25.511Z,1.60
2023-05-10T14:21:31.894Z,1.23
2023-05-10T14:27:38.065Z,1.27
2023-05-10T14:30:40.578Z,1.60
2023-05-10T14:33:43.914Z,1.17
2023-05-10T14:36:46.460Z,1.37
2023-05-10T14:39:49.271Z,1.23
2023-05-10T14:42:53.326Z,1.37
2023-05-10T14:45:56.071Z,1.20
2023-05-10T14:48:59.708Z,1.70
2023-05-10T14:52:02.615Z,1.08
2023-05-10T14:55:23.804Z,1.10
2023-05-10T14:58:26.712Z,1.37
2023-05-10T15:01:29.657Z,1.37
2023-05-10T15:04:33.236Z,1.40
2023-05-10T15:07:36.133Z,1.20
2023-05-10T15:10:39.561Z,1.55
2023-05-10T15:16:45.584Z,1.47
2023-05-10T15:19:48.093Z,1.70
2023-05-10T15:22:50.827Z,1.73
2023-05-10T15:25:56.541Z,1.73
2023-05-10T15:28:59.551Z,1.52
2023-05-10T15:32:02.874Z,1.43
2023-05-10T15:35:06.371Z,1.37
2023-05-10T15:38:10.602Z,1.60
2023-05-10T15:41:13.307Z,1.58
2023-05-10T15:44:15.831Z,1.80
2023-05-10T15:47:18.593Z,1.77
2023-05-10T15:50:21.067Z,1.93
2023-05-10T15:53:23.847Z,1.70
2023-05-10T15:56:26.753Z,1.70
2023-05-10T15:59:29.530Z,1.80
2023-05-10T16:02:32.564Z,1.70
2023-05-10T16:05:35.551Z,1.77
2023-05-10T16:08:38.110Z,1.40
2023-05-10T16:11:40.869Z,2.20
2023-05-10T16:14:43.364Z,1.30
2023-05-10T16:17:46.408Z,1.87
2023-05-10T16:20:49.267Z,1.80
2023-05-10T16:23:52.006Z,1.50
2023-05-10T16:26:54.436Z,1.70
2023-05-10T16:29:57.167Z,1.92
2023-05-10T16:33:00.970Z,1.53
2023-05-10T16:36:04.924Z,4.63
2023-05-10T16:39:09.113Z,2.00
2023-05-10T16:42:11.809Z,5.53
2023-05-10T16:45:14.396Z,2.10
2023-05-10T16:48:17.298Z,2.40
2023-05-10T16:54:23.614Z,1.90
2023-05-10T16:57:26.273Z,1.90
2023-05-10T17:00:30.334Z,1.80
2023-05-10T17:03:36.819Z,1.70
2023-05-10T17:06:40.200Z,1.40
2023-05-10T17:09:43.853Z,1.60
2023-05-10T17:12:46.894Z,1.60
2023-05-10T17:15:49.409Z,2.30
2023-05-10T17:18:53.255Z,2.40
2023-05-10T17:21:55.882Z,3.30
2023-05-10T17:24:58.613Z,1.70
2023-05-10T17:28:01.303Z,1.90
2023-05-10T17:31:04.215Z,2.00
2023-05-10T17:34:06.796Z,3.00
2023-05-10T17:37:10.587Z,2.77
2023-05-10T17:40:13.095Z,1.92
2023-05-10T17:43:15.842Z,1.80
2023-05-10T17:46:18.532Z,4.05
2023-05-10T17:49:21.366Z,3.63
2023-05-10T17:52:23.807Z,4.13
2023-05-10T17:55:27.197Z,4.05
2023-05-10T17:58:30.402Z,3.53
2023-05-10T18:01:33.295Z,2.78
2023-05-10T18:04:36.262Z,2.90
2023-05-10T18:07:39.679Z,2.63
2023-05-10T18:10:42.470Z,2.40
2023-05-10T18:13:44.912Z,2.40
2023-05-10T18:16:47.779Z,2.53
2023-05-10T18:19:50.283Z,2.90
2023-05-10T18:22:53.013Z,3.20
2023-05-10T18:25:55.507Z,3.12
2023-05-10T18:29:01.374Z,2.95
2023-05-10T18:32:04.450Z,3.80
2023-05-10T18:35:08.302Z,3.50
2023-05-10T18:38:10.991Z,3.63
2023-05-10T18:41:15.591Z,3.65
2023-05-10T18:44:19.058Z,3.10
2023-05-10T18:47:23.743Z,3.05
2023-05-10T18:50:26.413Z,2.73
2023-05-10T18:53:29.390Z,2.60
2023-05-10T18:56:31.847Z,2.42
2023-05-10T18:59:34.804Z,2.80
2023-05-10T19:02:38.793Z,2.17
2023-05-10T19:05:41.700Z,2.40
2023-05-10T19:08:44.453Z,2.30
2023-05-10T19:11:47.447Z,2.67
2023-05-10T19:14:50.094Z,2.50
2023-05-10T19:17:53.163Z,2.20
2023-05-10T19:20:56.558Z,2.37
2023-05-10T19:24:01.352Z,2.57
2023-05-10T19:27:04.370Z,2.50
2023-05-10T19:30:08.219Z,2.35
2023-05-10T19:33:12.570Z,2.20
2023-05-10T19:36:15.532Z,2.17
2023-05-10T19:39:18.217Z,2.17
2023-05-10T19:42:21.274Z,1.90
2023-05-10T19:45:23.892Z,1.60
2023-05-10T19:48:27.023Z,2.10
2023-05-10T19:51:29.781Z,1.80
2023-05-10T19:54:32.654Z,2.03
2023-05-10T19:57:35.567Z,2.05
2023-05-10T20:00:38.361Z,2.00
2023-05-10T20:03:41.131Z,2.47
2023-05-10T20:06:43.891Z,2.13
2023-05-10T20:09:46.829Z,2.00
2023-05-10T20:12:53.251Z,1.90
2023-05-10T20:15:59.769Z,2.30
2023-05-10T20:19:04.688Z,1.27
2023-05-10T20:22:09.372Z,2.10
2023-05-10T20:25:12.166Z,1.80
2023-05-10T20:31:19.033Z,1.98
2023-05-10T20:34:22.003Z,1.90
2023-05-10T20:37:24.547Z,1.67
2023-05-10T20:40:27.575Z,1.83
2023-05-10T20:43:30.045Z,1.37
2023-05-10T20:46:34.713Z,1.75
2023-05-10T20:49:38.038Z,1.60
2023-05-10T20:52:40.739Z,1.60
2023-05-10T20:55:43.184Z,1.90
2023-05-10T20:58:45.939Z,1.90
2023-05-10T21:01:48.383Z,1.90
2023-05-10T21:04:52.005Z,1.62
2023-05-10T21:07:56.204Z,1.90
2023-05-10T21:14:04.920Z,1.60
2023-05-10T21:17:07.606Z,1.80
2023-05-10T21:20:10.707Z,1.98
2023-05-10T21:23:13.752Z,2.00
2023-05-10T21:26:17.830Z,1.83
2023-05-10T21:29:20.658Z,1.87
2023-05-10T21:32:23.143Z,2.20
2023-05-10T21:35:26.461Z,2.33
2023-05-10T21:38:29.052Z,1.97
2023-05-10T21:41:31.808Z,2.07
2023-05-10T21:44:34.238Z,1.90
2023-05-10T21:47:37.239Z,2.12
2023-05-10T21:50:39.716Z,1.87
2023-05-10T21:53:42.426Z,1.90
2023-05-10T21:56:44.997Z,2.37
2023-05-10T21:59:47.736Z,2.10
2023-05-10T22:02:50.216Z,2.35
2023-05-10T22:05:53.053Z,2.20
2023-05-10T22:08:55.557Z,2.67
2023-05-10T22:11:58.366Z,2.30
2023-05-10T22:18:08.302Z,2.33
2023-05-10T22:21:10.922Z,2.70
2023-05-10T22:24:13.735Z,2.77
2023-05-10T22:27:16.393Z,2.60
2023-05-10T22:30:20.173Z,2.28
2023-05-10T22:33:22.822Z,2.55
2023-05-10T22:36:25.578Z,2.20
2023-05-10T22:39:28.269Z,2.40
2023-05-10T22:42:31.043Z,2.83
2023-05-10T22:45:33.462Z,2.33
2023-05-10T22:48:36.416Z,2.25
2023-05-10T22:51:38.836Z,2.50
2023-05-10T22:54:41.514Z,2.47
2023-05-10T22:57:44.000Z,1.80
2023-05-10T23:00:46.766Z,2.12
2023-05-10T23:03:49.283Z,2.60
2023-05-10T23:06:52.016Z,2.10
2023-05-10T23:09:54.521Z,2.37
2023-05-10T23:12:57.369Z,2.90
2023-05-10T23:16:07.468Z,2.37
2023-05-10T23:19:10.248Z,2.50
2023-05-10T23:22:13.716Z,2.45
2023-05-10T23:25:17.850Z,2.53
2023-05-10T23:28:20.326Z,2.00
2023-05-10T23:31:23.121Z,2.05
2023-05-10T23:34:25.560Z,2.30
2023-05-10T23:37:29.999Z,2.90
2023-05-10T23:40:35.448Z,2.70
2023-05-10T23:43:38.250Z,2.17
2023-05-10T23:46:42.263Z,2.62
2023-05-10T23:49:45.067Z,2.53
2023-05-10T23:52:48.260Z,2.55
2023-05-10T23:55:51.080Z,2.63
2023-05-10T23:58:53.491Z,2.40
